Main page
METAR-TAF:

METAR-TAF

Airports :

Hong Kong, China

Hong Kong International Airport

latitude: 22-19N, longitude: 113-55E, elevation: 9 m

Current weather observation

The report was made 32 minutes ago, at 14:30 UTC
Wind 18 kt from the East
Temperature 23°C
Humidity 83%
Pressure 1018 hPa
Visibility: 9000 m
Few clouds at a height of 1200 ft

METAR: VHHH 291430Z 08018KT 9000 FEW012 23/20 Q1018 NOSIG

Time: 23:02 (15:02 UTC)

Forecast

The report was made 4 hours and 2 minutes ago, at 11:00 UTC
Forecast valid from 29 at 12 UTC to 30 at 18 UTC
Wind 10 kt from the East
Visibility: 7000 m
Few clouds at a height of 2000 ft
Scattered clouds at a height of 3500 ft

TAF: VHHH 291100Z 2912/3018 10010KT 7000 FEW020 SCT035 TX27/3006Z TN21/2923Z

Weather observations and forecasts of more than 4000 airports (METAR and TAF reports).

The available stations are represented by yellow and red dots on the map.

Hover mouse over dot to see the name of the station.

Then click to see weather observations and forecasts.

To change the map : click on the green buttons with a black cross to zoom in, on the green button with a dash to zoom out, or on the green arrows for adjacent maps.


METAR-TAF: